Time;durP1;ratioP1;P1;durP2;ratioP2;P2;SDS_P1;SDS_P2;PMS_P1;PMS_P2;Temp;Humidity;BMP_temperature;BMP_pressure;BME280_temperature;BME280_humidity;BME280_pressure;Samples;Min_cycle;Max_cycle;Signal;HPM_P1;HPM_P2
2024/02/23 00:00:08;;;;;;;;;;;;;;;9.00;85.01;97165.48;270186;1274;22594;-93
2024/02/23 00:06:36;;;;;;;1.60;1.20;;;;;;;8.92;85.00;97145.85;268991;1274;22570;-93
2024/02/23 00:12:40;;;;;;;1.70;1.20;;;;;;;8.95;84.95;97141.99;268995;1273;22872;-91
2024/02/23 00:18:47;;;;;;;1.40;1.00;;;;;;;8.92;85.08;97157.92;268915;1267;24666;-92
2024/02/23 00:25:04;;;;;;;1.50;1.10;;;;;;;8.88;85.11;97146.83;270520;1271;22889;-92
2024/02/23 00:31:06;;;;;;;2.20;1.40;;;;;;;8.88;85.30;97140.05;270093;1274;22556;-93
2024/02/23 00:37:09;;;;;;;1.80;1.30;;;;;;;8.88;85.43;97136.94;270963;1274;22548;-92
2024/02/23 00:43:22;;;;;;;2.90;1.50;;;;;;;8.81;85.76;97137.79;269938;1273;23869;-92
2024/02/23 00:49:38;;;;;;;2.30;1.30;;;;;;;8.74;86.20;97135.61;268910;1274;22557;-92
2024/02/23 00:55:52;;;;;;;3.10;1.50;;;;;;;8.65;87.00;97130.41;269289;1273;23793;-92
2024/02/23 01:01:55;;;;;;;5.10;2.10;;;;;;;8.57;87.74;97129.18;270027;1270;22421;-93
2024/02/23 01:07:58;;;;;;;3.30;1.80;;;;;;;8.46;88.91;97119.80;271873;1274;22277;-92
2024/02/23 01:14:00;;;;;;;4.90;2.10;;;;;;;8.33;90.00;97121.70;271864;1274;22322;-94
2024/02/23 01:20:05;;;;;;;2.60;1.90;;;;;;;8.20;91.03;97126.73;271411;1274;24416;-93
2024/02/23 01:26:13;;;;;;;5.10;2.70;;;;;;;8.08;92.45;97124.27;270329;1274;23403;-92
2024/02/23 01:32:17;;;;;;;3.90;2.50;;;;;;;7.98;93.59;97116.95;272021;1274;22327;-92
2024/02/23 01:38:22;;;;;;;4.10;2.40;;;;;;;7.92;94.44;97113.73;270896;1268;22635;-93
2024/02/23 01:44:26;;;;;;;9.10;3.20;;;;;;;7.91;95.17;97110.32;268975;1274;23414;-92
2024/02/23 01:50:35;;;;;;;4.30;2.40;;;;;;;7.90;95.55;97101.77;268748;1274;25348;-93
2024/02/23 01:56:40;;;;;;;5.40;2.40;;;;;;;7.85;96.25;97100.40;268917;1274;22520;-93
2024/02/23 02:02:48;;;;;;;6.10;3.00;;;;;;;7.81;96.55;97101.76;268772;1274;22407;-93
2024/02/23 02:09:17;;;;;;;4.30;2.10;;;;;;;7.79;96.55;97099.52;270055;1273;22752;-93
2024/02/23 02:15:22;;;;;;;4.40;2.50;;;;;;;7.82;96.98;97102.60;269279;1274;23554;-93
2024/02/23 02:21:32;;;;;;;4.40;2.60;;;;;;;7.75;97.78;97095.81;269622;1274;22575;-92
2024/02/23 02:27:34;;;;;;;3.40;2.30;;;;;;;7.65;98.77;97096.29;269762;1274;22300;-94
2024/02/23 02:33:36;;;;;;;4.10;2.60;;;;;;;7.51;98.12;97089.30;271076;1254;22451;-85
2024/02/23 02:39:47;;;;;;;4.40;2.80;;;;;;;7.59;98.22;97100.38;272191;1273;22216;-85
2024/02/23 02:45:49;;;;;;;3.30;2.50;;;;;;;7.72;98.03;97106.34;272026;1274;23978;-84
2024/02/23 02:51:51;;;;;;;3.60;2.50;;;;;;;7.85;97.39;97112.15;272202;1272;22224;-85
2024/02/23 02:57:54;;;;;;;3.50;2.80;;;;;;;7.90;97.78;97111.80;272643;1273;22218;-85
2024/02/23 03:04:10;;;;;;;4.10;2.30;;;;;;;7.91;97.73;97108.45;272743;1270;22345;-84
2024/02/23 03:10:11;;;;;;;3.60;2.20;;;;;;;7.87;98.24;97105.59;272095;1273;22359;-84
2024/02/23 03:16:20;;;;;;;4.00;2.70;;;;;;;7.78;98.90;97107.08;272213;1271;22599;-87
2024/02/23 03:22:23;;;;;;;5.40;3.20;;;;;;;7.66;99.35;97098.85;272445;1266;22282;-84
2024/02/23 03:28:45;;;;;;;4.10;2.80;;;;;;;7.59;99.76;97099.52;272457;1273;22923;-85
2024/02/23 03:35:00;;;;;;;9.60;3.10;;;;;;;7.54;100.00;97101.27;272463;1273;22214;-84
2024/02/23 03:41:02;;;;;;;4.20;2.40;;;;;;;7.49;100.00;97104.50;272363;1272;22171;-84
2024/02/23 03:47:05;;;;;;;6.60;2.80;;;;;;;7.44;100.00;97109.13;272520;1273;22229;-85
2024/02/23 03:53:07;;;;;;;4.10;2.30;;;;;;;7.40;100.00;97115.84;272935;1274;22206;-84
2024/02/23 03:59:10;;;;;;;3.40;2.10;;;;;;;7.37;100.00;97130.94;273023;1274;22203;-85
2024/02/23 04:05:11;;;;;;;5.10;2.30;;;;;;;7.30;100.00;97138.68;272229;1273;23110;-86
2024/02/23 04:11:13;;;;;;;5.80;3.10;;;;;;;7.20;100.00;97142.70;272833;1275;23292;-84
2024/02/23 04:17:16;;;;;;;10.90;4.90;;;;;;;7.15;100.00;97143.35;272969;1274;22303;-84
2024/02/23 04:23:18;;;;;;;9.60;4.50;;;;;;;7.16;100.00;97146.38;272514;1273;22792;-85
2024/02/23 04:29:20;;;;;;;8.50;4.70;;;;;;;7.17;100.00;97156.80;272266;1272;22959;-84
2024/02/23 04:35:21;;;;;;;9.00;5.60;;;;;;;7.16;100.00;97162.16;272254;1273;22231;-84
2024/02/23 04:41:24;;;;;;;11.10;6.70;;;;;;;7.14;100.00;97167.05;272560;1273;22195;-84
2024/02/23 04:47:40;;;;;;;10.50;7.40;;;;;;;7.11;100.00;97170.73;272703;1273;22222;-85
2024/02/23 04:53:46;;;;;;;11.90;6.70;;;;;;;7.10;100.00;97173.46;272250;1268;22355;-84
2024/02/23 04:59:48;;;;;;;9.00;5.80;;;;;;;7.10;100.00;97174.93;272281;1272;22195;-84
2024/02/23 05:05:53;;;;;;;14.00;5.80;;;;;;;7.07;100.00;97178.68;271896;1272;23407;-85
2024/02/23 05:11:55;;;;;;;13.10;6.70;;;;;;;6.99;100.00;97188.82;272159;1272;22340;-84
2024/02/23 05:17:57;;;;;;;13.70;7.60;;;;;;;6.91;100.00;97193.11;272192;1273;23259;-85
2024/02/23 05:23:59;;;;;;;11.70;6.90;;;;;;;6.89;100.00;97202.14;272746;1273;23004;-84
2024/02/23 05:30:01;;;;;;;15.00;7.60;;;;;;;6.89;100.00;97213.80;272199;1272;22426;-85
2024/02/23 05:36:03;;;;;;;14.70;7.00;;;;;;;6.88;100.00;97224.29;272742;1273;23099;-84
2024/02/23 05:42:05;;;;;;;14.10;8.10;;;;;;;6.89;100.00;97229.48;272724;1275;22412;-84
2024/02/23 05:48:07;;;;;;;14.30;8.60;;;;;;;6.87;100.00;97235.80;272411;1273;22321;-84
2024/02/23 05:54:11;;;;;;;14.20;9.00;;;;;;;6.86;100.00;97245.13;272319;1273;22273;-84
2024/02/23 06:00:18;;;;;;;11.10;7.10;;;;;;;6.84;100.00;97253.60;272720;1275;22904;-85
2024/02/23 06:06:48;;;;;;;11.30;7.00;;;;;;;6.84;100.00;97262.23;272646;1274;23175;-84
2024/02/23 06:13:12;;;;;;;10.20;7.10;;;;;;;6.85;100.00;97272.26;272601;1274;22220;-85
2024/02/23 06:19:17;;;;;;;13.50;7.70;;;;;;;6.85;100.00;97286.38;272158;1268;22344;-85
2024/02/23 06:25:18;;;;;;;12.40;8.40;;;;;;;6.87;100.00;97288.33;272316;1269;22238;-84
2024/02/23 06:31:20;;;;;;;10.70;7.60;;;;;;;6.91;100.00;97299.12;272370;1273;23636;-84
2024/02/23 06:37:25;;;;;;;11.10;7.10;;;;;;;6.97;100.00;97310.70;272415;1272;22263;-84
2024/02/23 06:43:27;;;;;;;11.70;7.50;;;;;;;7.05;100.00;97321.64;272691;1271;22229;-84
2024/02/23 06:49:34;;;;;;;10.00;7.10;;;;;;;7.12;100.00;97318.75;272230;1272;22344;-84
2024/02/23 06:55:36;;;;;;;15.40;10.10;;;;;;;7.21;100.00;97329.09;272336;1273;23404;-85
2024/02/23 07:01:47;;;;;;;15.40;11.40;;;;;;;7.28;100.00;97338.84;272568;1273;22893;-85
2024/02/23 07:08:00;;;;;;;11.20;8.60;;;;;;;7.37;100.00;97342.33;272706;1271;22202;-84
2024/02/23 07:14:02;;;;;;;14.50;10.70;;;;;;;7.47;100.00;97344.09;272319;1271;22967;-85
2024/02/23 07:20:07;;;;;;;18.40;11.60;;;;;;;7.54;100.00;97351.91;272338;1274;23148;-84
2024/02/23 07:26:09;;;;;;;30.20;17.80;;;;;;;7.60;100.00;97361.86;272268;1273;22543;-84
2024/02/23 07:32:11;;;;;;;32.20;20.00;;;;;;;7.63;100.00;97374.07;273004;1275;23140;-84
2024/02/23 07:38:13;;;;;;;39.20;25.80;;;;;;;7.67;100.00;97384.48;272436;1272;22436;-84
2024/02/23 07:44:14;;;;;;;36.70;23.70;;;;;;;7.69;100.00;97399.97;272795;1272;22236;-85
2024/02/23 07:50:18;;;;;;;20.70;14.20;;;;;;;7.70;100.00;97406.11;272581;1276;22186;-84
2024/02/23 07:56:20;;;;;;;19.70;12.00;;;;;;;7.69;100.00;97419.02;272422;1269;22275;-84
2024/02/23 08:03:00;;;;;;;20.00;13.10;;;;;;;7.71;100.00;97426.65;272254;1274;23413;-84
2024/02/23 08:09:04;;;;;;;21.10;12.80;;;;;;;7.71;100.00;97434.44;272374;1274;22234;-85
2024/02/23 08:15:06;;;;;;;20.80;13.80;;;;;;;7.71;100.00;97433.66;272304;1272;23098;-85
2024/02/23 08:21:10;;;;;;;21.80;14.40;;;;;;;7.73;100.00;97442.50;272835;1275;22164;-85
2024/02/23 08:27:12;;;;;;;20.90;14.20;;;;;;;7.72;100.00;97445.87;272565;1275;22312;-84
2024/02/23 08:33:14;;;;;;;15.50;10.10;;;;;;;7.72;100.00;97441.36;272183;1273;22587;-84
2024/02/23 08:39:16;;;;;;;14.30;9.10;;;;;;;7.73;100.00;97444.31;272439;1273;22206;-85
2024/02/23 08:45:17;;;;;;;13.90;7.90;;;;;;;7.80;100.00;97451.84;273091;1275;22896;-84
2024/02/23 08:51:19;;;;;;;13.50;7.20;;;;;;;7.86;100.00;97457.98;272421;1273;22175;-84
2024/02/23 08:57:23;;;;;;;12.60;7.10;;;;;;;7.93;100.00;97465.73;273081;1275;22199;-84
2024/02/23 09:03:26;;;;;;;8.80;5.40;;;;;;;7.99;100.00;97471.09;272373;1274;22258;-86
2024/02/23 09:09:28;;;;;;;8.10;5.10;;;;;;;7.95;100.00;97469.23;272236;1273;22415;-85
2024/02/23 09:15:31;;;;;;;11.60;4.70;;;;;;;8.00;100.00;97478.25;272252;1273;22731;-85
2024/02/23 09:21:33;;;;;;;9.60;5.40;;;;;;;8.06;100.00;97481.35;272347;1273;22279;-85
2024/02/23 09:27:58;;;;;;;9.90;5.20;;;;;;;8.11;100.00;97481.17;272821;1274;22260;-86
2024/02/23 09:34:00;;;;;;;7.60;4.60;;;;;;;8.20;100.00;97493.45;272386;1272;22374;-86
2024/02/23 09:40:02;;;;;;;6.40;4.30;;;;;;;8.29;100.00;97504.66;272338;1271;23129;-86
2024/02/23 09:46:04;;;;;;;5.80;4.10;;;;;;;8.37;100.00;97517.64;272365;1264;22196;-84
2024/02/23 09:52:10;;;;;;;6.30;4.20;;;;;;;8.45;100.00;97533.58;272336;1273;23491;-85
2024/02/23 09:58:13;;;;;;;9.80;5.10;;;;;;;8.48;100.00;97542.85;272483;1273;22854;-86
2024/02/23 10:04:15;;;;;;;11.40;5.60;;;;;;;8.49;100.00;97545.48;272037;1274;367096;-85
2024/02/23 10:10:42;;;;;;;10.00;6.30;;;;;;;8.57;100.00;97546.47;272236;1272;22510;-86
2024/02/23 10:16:45;;;;;;;11.30;7.40;;;;;;;8.64;100.00;97549.01;272579;1273;22241;-85
2024/02/23 10:22:49;;;;;;;10.40;6.50;;;;;;;8.75;100.00;97550.52;272983;1274;23279;-86
2024/02/23 10:28:51;;;;;;;14.80;7.60;;;;;;;8.84;100.00;97541.66;272374;1261;22257;-85
2024/02/23 10:35:03;;;;;;;9.60;5.40;;;;;;;8.97;100.00;97550.09;272219;1273;22331;-87
2024/02/23 10:41:07;;;;;;;10.40;5.30;;;;;;;9.08;100.00;97554.94;272795;1273;22254;-85
2024/02/23 10:47:11;;;;;;;7.90;5.00;;;;;;;9.25;100.00;97548.59;272690;1274;22304;-85
2024/02/23 10:53:14;;;;;;;8.60;4.70;;;;;;;9.34;100.00;97555.16;272673;1273;22228;-86
2024/02/23 10:59:19;;;;;;;5.80;3.70;;;;;;;9.40;100.00;97556.45;272211;1272;22219;-85
2024/02/23 11:05:22;;;;;;;6.80;3.60;;;;;;;9.51;100.00;97549.49;272131;1273;22494;-85
2024/02/23 11:11:24;;;;;;;5.40;3.20;;;;;;;9.60;100.00;97560.13;272307;1273;22405;-85
2024/02/23 11:17:26;;;;;;;5.50;3.10;;;;;;;9.67;100.00;97564.42;272909;1261;22198;-86
2024/02/23 11:23:48;;;;;;;5.50;3.20;;;;;;;9.69;100.00;97567.54;272368;1272;23029;-85
2024/02/23 11:29:59;;;;;;;4.80;3.10;;;;;;;9.71;100.00;97564.71;272348;1273;22278;-88
2024/02/23 11:36:08;;;;;;;5.50;3.30;;;;;;;9.73;100.00;97565.33;272316;1273;22310;-85
2024/02/23 11:42:10;;;;;;;6.10;3.20;;;;;;;9.79;100.00;97568.08;272931;1273;22202;-84
2024/02/23 11:48:12;;;;;;;7.20;3.80;;;;;;;9.97;100.00;97570.19;272146;1265;22242;-85
2024/02/23 11:54:15;;;;;;;5.50;3.50;;;;;;;10.07;100.00;97569.09;272839;1273;22196;-85
2024/02/23 12:00:19;;;;;;;5.90;3.30;;;;;;;10.10;100.00;97574.55;272462;1277;22302;-85
2024/02/23 12:06:21;;;;;;;11.60;4.50;;;;;;;10.18;100.00;97585.88;272258;1273;23576;-87
2024/02/23 12:12:25;;;;;;;17.20;5.60;;;;;;;10.29;100.00;97591.08;272249;1273;22317;-86
2024/02/23 12:18:42;;;;;;;7.40;4.00;;;;;;;10.34;100.00;97594.70;272810;1266;22200;-86
2024/02/23 12:25:24;;;;;;;5.70;3.50;;;;;;;10.34;100.00;97606.95;272424;1273;22548;-86
2024/02/23 12:31:32;;;;;;;7.50;3.50;;;;;;;10.31;100.00;97609.02;272546;1273;22337;-86
2024/02/23 12:37:45;;;;;;;8.20;4.40;;;;;;;10.24;100.00;97608.63;272239;1272;22498;-86
2024/02/23 12:44:13;;;;;;;9.90;4.30;;;;;;;10.24;100.00;97613.70;272932;1276;22221;-85
2024/02/23 12:50:19;;;;;;;9.50;4.30;;;;;;;10.26;100.00;97617.04;272770;1281;22307;-86
2024/02/23 12:56:20;;;;;;;6.10;3.70;;;;;;;10.25;100.00;97603.39;272253;1273;22344;-87
2024/02/23 13:02:22;;;;;;;7.30;4.50;;;;;;;10.21;100.00;97612.64;272084;1272;22211;-86
2024/02/23 13:08:25;;;;;;;11.00;4.60;;;;;;;10.13;100.00;97628.26;272273;1273;23581;-85
2024/02/23 13:14:27;;;;;;;7.60;4.30;;;;;;;10.10;100.00;97623.52;272352;1272;22386;-85
2024/02/23 13:20:55;;;;;;;9.20;4.40;;;;;;;10.07;100.00;97627.13;272372;1274;22860;-86
2024/02/23 13:27:01;;;;;;;11.70;5.30;;;;;;;10.06;100.00;97620.80;272723;1275;24194;-86
2024/02/23 13:33:06;;;;;;;8.50;4.90;;;;;;;10.00;100.00;97626.48;272240;1273;22376;-86
2024/02/23 13:39:08;;;;;;;9.60;5.10;;;;;;;10.00;100.00;97636.86;272088;1271;22345;-86
2024/02/23 13:45:13;;;;;;;6.20;3.30;;;;;;;9.99;100.00;97646.24;272646;1273;22904;-86
2024/02/23 13:51:16;;;;;;;4.00;2.40;;;;;;;9.92;100.00;97644.42;272172;1272;22210;-85
2024/02/23 13:58:02;;;;;;;6.30;3.40;;;;;;;9.82;100.00;97649.65;272902;1275;22268;-85
2024/02/23 14:04:07;;;;;;;10.10;3.60;;;;;;;9.72;100.00;97657.52;272265;1273;22209;-86
2024/02/23 14:10:09;;;;;;;20.40;8.40;;;;;;;9.65;100.00;97661.71;272681;1273;22205;-86
2024/02/23 14:16:11;;;;;;;10.50;5.20;;;;;;;9.56;100.00;97658.48;272655;1273;22257;-86
2024/02/23 14:22:13;;;;;;;6.40;2.70;;;;;;;9.46;100.00;97651.77;272198;1272;22357;-87
2024/02/23 14:28:15;;;;;;;4.50;2.20;;;;;;;9.34;100.00;97652.08;272810;1268;23223;-86
2024/02/23 14:34:42;;;;;;;2.70;1.90;;;;;;;9.24;100.00;97662.03;272321;1268;22784;-85
2024/02/23 14:40:44;;;;;;;3.00;1.70;;;;;;;9.22;100.00;97657.36;272551;1275;23002;-85
2024/02/23 14:47:06;;;;;;;5.70;2.80;;;;;;;9.18;100.00;97657.77;272627;1273;22233;-86
2024/02/23 14:53:08;;;;;;;6.10;3.30;;;;;;;9.21;100.00;97664.94;272528;1265;22348;-86
2024/02/23 14:59:10;;;;;;;8.20;3.70;;;;;;;9.19;100.00;97668.37;272882;1280;22222;-85
2024/02/23 15:05:34;;;;;;;15.90;8.20;;;;;;;9.19;100.00;97676.79;272504;1273;22199;-85
2024/02/23 15:11:36;;;;;;;16.50;10.00;;;;;;;9.20;100.00;97686.23;272342;1272;22868;-85
2024/02/23 15:17:38;;;;;;;9.10;4.80;;;;;;;9.18;100.00;97674.22;272311;1273;22249;-87
2024/02/23 15:23:43;;;;;;;6.60;3.80;;;;;;;9.12;100.00;97668.55;272172;1273;22467;-86
2024/02/23 15:29:46;;;;;;;12.20;6.00;;;;;;;9.06;100.00;97668.74;272577;1261;22206;-85
2024/02/23 15:35:47;;;;;;;18.20;9.50;;;;;;;9.01;100.00;97668.38;272847;1272;23557;-86
2024/02/23 15:42:09;;;;;;;22.80;11.90;;;;;;;8.95;100.00;97671.36;272704;1274;22279;-85
2024/02/23 15:48:31;;;;;;;21.30;11.00;;;;;;;8.87;100.00;97676.60;272556;1274;22384;-85
2024/02/23 15:54:41;;;;;;;19.70;9.70;;;;;;;8.81;100.00;97676.23;272790;1264;22237;-86
2024/02/23 16:00:43;;;;;;;18.50;8.40;;;;;;;8.74;100.00;97685.54;272240;1271;22428;-85
2024/02/23 16:07:06;;;;;;;14.50;8.50;;;;;;;8.67;100.00;97695.83;272775;1274;22189;-86
2024/02/23 16:13:08;;;;;;;15.40;7.80;;;;;;;8.61;100.00;97694.14;272546;1268;22257;-85
2024/02/23 16:19:11;;;;;;;12.20;6.50;;;;;;;8.52;100.00;97700.55;272817;1277;22224;-85
2024/02/23 16:25:13;;;;;;;12.70;7.80;;;;;;;8.45;100.00;97707.34;272826;1276;23016;-85
2024/02/23 16:31:15;;;;;;;15.80;9.30;;;;;;;8.37;100.00;97706.64;272725;1274;22229;-85
2024/02/23 16:37:18;;;;;;;16.10;10.40;;;;;;;8.30;100.00;97711.23;272240;1273;22288;-86
2024/02/23 16:43:19;;;;;;;17.90;10.30;;;;;;;8.21;100.00;97709.27;272934;1273;22202;-85
2024/02/23 16:49:34;;;;;;;23.90;13.80;;;;;;;8.06;100.00;97702.10;273068;1270;22208;-85
2024/02/23 16:55:36;;;;;;;31.40;21.30;;;;;;;7.90;100.00;97696.17;272119;1272;22878;-85
2024/02/23 17:01:58;;;;;;;29.40;18.20;;;;;;;7.81;100.00;97695.62;273007;1273;22280;-85
2024/02/23 17:08:00;;;;;;;27.00;18.30;;;;;;;7.69;100.00;97694.05;272101;1259;22457;-85
2024/02/23 17:14:12;;;;;;;26.60;18.60;;;;;;;7.60;100.00;97708.11;273015;1275;22333;-85
2024/02/23 17:20:14;;;;;;;35.80;20.30;;;;;;;7.55;100.00;97709.81;272573;1273;22996;-85
2024/02/23 17:26:16;;;;;;;29.10;19.00;;;;;;;7.51;100.00;97708.88;272701;1270;22198;-85
2024/02/23 17:32:21;;;;;;;35.20;22.50;;;;;;;7.49;100.00;97704.42;272174;1273;22273;-86
2024/02/23 17:38:33;;;;;;;42.70;26.40;;;;;;;7.50;100.00;97709.03;272992;1273;22852;-85
2024/02/23 17:44:39;;;;;;;33.80;22.00;;;;;;;7.51;100.00;97710.34;273074;1275;22231;-85
2024/02/23 17:50:44;;;;;;;39.40;23.70;;;;;;;7.49;100.00;97714.30;264979;1273;10002163;-85
2024/02/23 17:56:49;;;;;;;39.30;24.70;;;;;;;7.48;100.00;97707.77;272835;1275;22405;-84
2024/02/23 18:02:53;;;;;;;43.50;25.80;;;;;;;7.47;100.00;97703.95;272559;1275;22222;-85
2024/02/23 18:09:09;;;;;;;48.20;26.40;;;;;;;7.45;100.00;97690.10;272242;1273;22453;-85
2024/02/23 18:15:11;;;;;;;68.80;32.60;;;;;;;7.44;100.00;97679.52;272186;1273;23301;-85
2024/02/23 18:21:16;;;;;;;46.20;25.50;;;;;;;7.45;100.00;97686.99;272353;1276;22633;-85
2024/02/23 18:27:19;;;;;;;40.30;22.50;;;;;;;7.51;100.00;97688.63;272675;1274;22188;-85
2024/02/23 18:33:21;;;;;;;37.90;22.00;;;;;;;7.58;100.00;97687.10;272673;1273;22217;-85
2024/02/23 18:39:24;;;;;;;41.10;22.80;;;;;;;7.62;100.00;97700.80;272694;1272;22396;-85
2024/02/23 18:45:40;;;;;;;36.50;21.30;;;;;;;7.60;100.00;97703.45;272883;1280;23022;-85
2024/02/23 18:51:42;;;;;;;27.20;16.00;;;;;;;7.57;100.00;97690.13;272386;1266;22194;-85
2024/02/23 18:57:44;;;;;;;36.10;19.60;;;;;;;7.56;100.00;97696.66;272538;1274;22706;-85
2024/02/23 19:03:47;;;;;;;39.00;19.60;;;;;;;7.57;100.00;97691.30;272564;1275;22190;-85
2024/02/23 19:09:59;;;;;;;43.70;22.40;;;;;;;7.55;100.00;97692.61;272315;1274;22233;-85
2024/02/23 19:16:00;;;;;;;58.20;27.70;;;;;;;7.53;100.00;97690.05;272236;1272;22555;-88
2024/02/23 19:22:02;;;;;;;41.90;22.10;;;;;;;7.52;100.00;97685.98;272879;1273;22232;-86
2024/02/23 19:28:04;;;;;;;40.80;22.60;;;;;;;7.48;100.00;97678.67;272185;1273;22971;-86
2024/02/23 19:34:09;;;;;;;46.00;24.30;;;;;;;7.45;100.00;97683.02;272098;1273;22266;-85
2024/02/23 19:40:13;;;;;;;44.10;21.20;;;;;;;7.43;100.00;97682.15;272180;1272;23099;-86
2024/02/23 19:46:18;;;;;;;41.40;22.10;;;;;;;7.41;100.00;97680.99;272461;1273;22255;-85
2024/02/23 19:53:01;;;;;;;31.90;16.60;;;;;;;7.39;100.00;97672.19;272434;1264;23593;-85
2024/02/23 19:59:04;;;;;;;22.60;12.80;;;;;;;7.53;100.00;97670.36;272846;1273;22238;-84
2024/02/23 20:05:06;;;;;;;19.70;11.00;;;;;;;7.83;100.00;97667.05;272317;1275;22474;-86
2024/02/23 20:11:08;;;;;;;20.20;11.30;;;;;;;8.05;100.00;97662.70;272804;1275;22357;-85
2024/02/23 20:17:15;;;;;;;14.50;8.60;;;;;;;8.15;100.00;97652.17;272051;1268;22390;-85
2024/02/23 20:23:27;;;;;;;17.40;9.10;;;;;;;8.21;100.00;97645.17;272098;1273;23619;-85
2024/02/23 20:29:30;;;;;;;19.80;11.10;;;;;;;8.22;100.00;97644.71;272842;1273;23159;-85
2024/02/23 20:35:41;;;;;;;15.50;9.20;;;;;;;8.19;100.00;97648.04;272431;1272;22331;-86
2024/02/23 20:41:53;;;;;;;17.80;10.40;;;;;;;8.19;100.00;97651.39;272524;1275;22218;-85
2024/02/23 20:47:55;;;;;;;18.00;10.30;;;;;;;8.22;100.00;97659.59;272893;1275;22193;-85
2024/02/23 20:53:56;;;;;;;20.00;11.80;;;;;;;8.22;100.00;97661.77;272872;1275;23015;-85
2024/02/23 21:00:00;;;;;;;25.10;12.30;;;;;;;8.19;100.00;97651.01;272616;1275;22323;-86
2024/02/23 21:06:05;;;;;;;30.70;15.70;;;;;;;8.15;100.00;97634.89;272672;1275;23190;-86
2024/02/23 21:12:27;;;;;;;27.20;14.10;;;;;;;8.07;100.00;97635.76;272911;1274;22191;-85
2024/02/23 21:18:29;;;;;;;37.90;16.90;;;;;;;7.95;100.00;97632.19;272628;1273;22195;-85
2024/02/23 21:24:54;;;;;;;37.50;18.50;;;;;;;7.82;100.00;97613.34;272376;1274;22194;-85
2024/02/23 21:31:03;;;;;;;30.70;16.30;;;;;;;7.67;100.00;97617.31;272849;1280;22201;-85
2024/02/23 21:37:06;;;;;;;30.60;15.30;;;;;;;7.57;100.00;97624.77;272684;1273;23415;-85
2024/02/23 21:43:35;;;;;;;30.80;16.90;;;;;;;7.47;100.00;97619.63;272523;1272;23138;-85
2024/02/23 21:49:53;;;;;;;31.00;16.90;;;;;;;7.36;100.00;97626.92;273009;1265;22236;-85
2024/02/23 21:56:21;;;;;;;27.20;14.60;;;;;;;7.26;100.00;97626.05;272339;1274;22214;-85
2024/02/23 22:02:30;;;;;;;31.00;15.30;;;;;;;7.21;100.00;97626.97;272581;1277;294646;-86
2024/02/23 22:08:32;;;;;;;28.90;13.60;;;;;;;7.16;100.00;97628.97;272933;1274;22190;-85
2024/02/23 22:14:34;;;;;;;22.10;11.40;;;;;;;7.14;100.00;97630.37;272251;1273;22336;-86
2024/02/23 22:20:36;;;;;;;21.00;11.30;;;;;;;7.15;100.00;97629.59;272178;1272;23212;-86
2024/02/23 22:26:38;;;;;;;19.40;10.50;;;;;;;7.13;100.00;97633.63;272483;1273;22260;-85
2024/02/23 22:32:40;;;;;;;19.00;10.80;;;;;;;7.12;100.00;97630.52;272268;1273;22391;-85
2024/02/23 22:38:42;;;;;;;21.40;11.30;;;;;;;7.11;100.00;97602.45;272520;1273;22310;-85
2024/02/23 22:44:44;;;;;;;18.70;10.00;;;;;;;7.07;100.00;97585.80;272114;1265;22331;-86
2024/02/23 22:50:47;;;;;;;14.80;8.90;;;;;;;7.10;100.00;97582.09;272300;1274;23426;-85
2024/02/23 22:56:48;;;;;;;13.90;7.40;;;;;;;7.16;100.00;97579.68;272207;1273;22451;-85
2024/02/23 23:02:53;;;;;;;13.00;6.30;;;;;;;7.36;100.00;97584.98;272947;1274;23202;-85
2024/02/23 23:09:08;;;;;;;11.70;6.20;;;;;;;7.59;100.00;97575.13;272852;1277;22948;-85
2024/02/23 23:15:30;;;;;;;11.20;6.20;;;;;;;7.74;100.00;97565.48;272795;1280;22301;-85
2024/02/23 23:21:52;;;;;;;17.80;8.60;;;;;;;7.73;100.00;97563.69;273019;1275;22248;-85
2024/02/23 23:27:55;;;;;;;12.10;6.50;;;;;;;7.68;100.00;97562.60;272557;1275;22217;-84
2024/02/23 23:33:59;;;;;;;11.80;6.40;;;;;;;7.64;100.00;97557.63;273104;1268;22304;-85
2024/02/23 23:40:04;;;;;;;16.10;8.00;;;;;;;7.57;100.00;97558.33;272334;1273;22286;-86
2024/02/23 23:46:05;;;;;;;16.00;6.80;;;;;;;7.43;100.00;97559.17;272547;1273;22171;-85
2024/02/23 23:52:08;;;;;;;15.40;8.20;;;;;;;7.31;100.00;97560.64;272242;1273;23498;-85
2024/02/23 23:58:10;;;;;;;10.90;6.10;;;;;;;7.28;100.00;97551.46;272605;1273;22217;-86
